sensor_id;sensor_type;location;lat;lon;timestamp;P1;durP1;ratioP1;P2;durP2;ratioP2
13406;SDS011;6774;48.208;10.766;2023-08-06T00:00:54;3.43;;;3.23;;
13406;SDS011;6774;48.208;10.766;2023-08-06T00:03:22;4.57;;;4.27;;
13406;SDS011;6774;48.208;10.766;2023-08-06T00:05:50;3.90;;;3.70;;
13406;SDS011;6774;48.208;10.766;2023-08-06T00:08:19;4.07;;;3.63;;
13406;SDS011;6774;48.208;10.766;2023-08-06T00:10:47;4.10;;;3.80;;
13406;SDS011;6774;48.208;10.766;2023-08-06T00:13:15;3.10;;;3.00;;
13406;SDS011;6774;48.208;10.766;2023-08-06T00:15:43;2.57;;;2.37;;
13406;SDS011;6774;48.208;10.766;2023-08-06T00:18:10;3.43;;;3.23;;
13406;SDS011;6774;48.208;10.766;2023-08-06T00:20:38;2.33;;;2.17;;
13406;SDS011;6774;48.208;10.766;2023-08-06T00:23:07;2.40;;;2.30;;
13406;SDS011;6774;48.208;10.766;2023-08-06T00:25:37;2.63;;;2.50;;
13406;SDS011;6774;48.208;10.766;2023-08-06T00:28:05;2.07;;;1.90;;
13406;SDS011;6774;48.208;10.766;2023-08-06T00:30:33;2.70;;;2.50;;
13406;SDS011;6774;48.208;10.766;2023-08-06T00:33:01;2.90;;;2.70;;
13406;SDS011;6774;48.208;10.766;2023-08-06T00:35:29;2.17;;;2.07;;
13406;SDS011;6774;48.208;10.766;2023-08-06T00:37:57;3.00;;;2.80;;
13406;SDS011;6774;48.208;10.766;2023-08-06T00:40:25;2.67;;;2.00;;
13406;SDS011;6774;48.208;10.766;2023-08-06T00:42:56;2.47;;;2.03;;
13406;SDS011;6774;48.208;10.766;2023-08-06T00:45:24;2.33;;;2.07;;
13406;SDS011;6774;48.208;10.766;2023-08-06T00:47:53;1.93;;;1.83;;
13406;SDS011;6774;48.208;10.766;2023-08-06T00:50:21;2.27;;;1.97;;
13406;SDS011;6774;48.208;10.766;2023-08-06T00:52:49;2.33;;;2.23;;
13406;SDS011;6774;48.208;10.766;2023-08-06T00:55:17;2.57;;;2.23;;
13406;SDS011;6774;48.208;10.766;2023-08-06T00:57:45;2.27;;;2.17;;
13406;SDS011;6774;48.208;10.766;2023-08-06T01:00:15;2.50;;;2.27;;
13406;SDS011;6774;48.208;10.766;2023-08-06T01:02:42;1.70;;;1.60;;
13406;SDS011;6774;48.208;10.766;2023-08-06T01:05:10;2.23;;;2.13;;
13406;SDS011;6774;48.208;10.766;2023-08-06T01:07:41;1.90;;;1.80;;
13406;SDS011;6774;48.208;10.766;2023-08-06T01:10:19;1.40;;;1.40;;
13406;SDS011;6774;48.208;10.766;2023-08-06T01:13:02;1.87;;;1.77;;
13406;SDS011;6774;48.208;10.766;2023-08-06T01:15:38;2.30;;;2.20;;
13406;SDS011;6774;48.208;10.766;2023-08-06T01:18:11;1.40;;;1.30;;
13406;SDS011;6774;48.208;10.766;2023-08-06T01:20:41;3.30;;;1.40;;
13406;SDS011;6774;48.208;10.766;2023-08-06T01:23:09;1.50;;;1.40;;
13406;SDS011;6774;48.208;10.766;2023-08-06T01:25:38;1.40;;;1.10;;
13406;SDS011;6774;48.208;10.766;2023-08-06T01:28:15;1.53;;;1.30;;
13406;SDS011;6774;48.208;10.766;2023-08-06T01:30:53;2.20;;;1.07;;
13406;SDS011;6774;48.208;10.766;2023-08-06T01:33:26;1.90;;;1.80;;
13406;SDS011;6774;48.208;10.766;2023-08-06T01:36:01;2.13;;;1.27;;
13406;SDS011;6774;48.208;10.766;2023-08-06T01:38:30;2.43;;;2.27;;
13406;SDS011;6774;48.208;10.766;2023-08-06T01:40:58;1.33;;;1.23;;
13406;SDS011;6774;48.208;10.766;2023-08-06T01:43:26;3.80;;;3.47;;
13406;SDS011;6774;48.208;10.766;2023-08-06T01:45:54;1.50;;;1.40;;
13406;SDS011;6774;48.208;10.766;2023-08-06T01:48:23;1.53;;;1.43;;
13406;SDS011;6774;48.208;10.766;2023-08-06T01:50:51;1.97;;;1.87;;
13406;SDS011;6774;48.208;10.766;2023-08-06T01:53:20;1.97;;;1.40;;
13406;SDS011;6774;48.208;10.766;2023-08-06T01:55:48;2.10;;;1.53;;
13406;SDS011;6774;48.208;10.766;2023-08-06T01:58:15;2.60;;;2.50;;
13406;SDS011;6774;48.208;10.766;2023-08-06T02:00:43;2.70;;;2.50;;
13406;SDS011;6774;48.208;10.766;2023-08-06T02:03:11;3.00;;;1.60;;
13406;SDS011;6774;48.208;10.766;2023-08-06T02:05:39;2.80;;;1.73;;
13406;SDS011;6774;48.208;10.766;2023-08-06T02:08:07;1.40;;;1.30;;
13406;SDS011;6774;48.208;10.766;2023-08-06T02:10:36;1.73;;;1.63;;
13406;SDS011;6774;48.208;10.766;2023-08-06T02:13:06;1.47;;;1.37;;
13406;SDS011;6774;48.208;10.766;2023-08-06T02:15:33;1.67;;;1.57;;
13406;SDS011;6774;48.208;10.766;2023-08-06T02:18:01;2.60;;;1.37;;
13406;SDS011;6774;48.208;10.766;2023-08-06T02:20:29;1.80;;;1.40;;
13406;SDS011;6774;48.208;10.766;2023-08-06T02:22:57;2.17;;;2.07;;
13406;SDS011;6774;48.208;10.766;2023-08-06T02:25:24;2.93;;;1.33;;
13406;SDS011;6774;48.208;10.766;2023-08-06T02:27:53;2.27;;;2.07;;
13406;SDS011;6774;48.208;10.766;2023-08-06T02:30:21;1.93;;;1.83;;
13406;SDS011;6774;48.208;10.766;2023-08-06T02:32:49;1.17;;;1.07;;
13406;SDS011;6774;48.208;10.766;2023-08-06T02:35:17;2.10;;;1.33;;
13406;SDS011;6774;48.208;10.766;2023-08-06T02:37:45;1.60;;;1.50;;
13406;SDS011;6774;48.208;10.766;2023-08-06T02:40:13;1.93;;;1.83;;
13406;SDS011;6774;48.208;10.766;2023-08-06T02:42:41;3.60;;;2.20;;
13406;SDS011;6774;48.208;10.766;2023-08-06T02:45:10;1.80;;;1.70;;
13406;SDS011;6774;48.208;10.766;2023-08-06T02:47:38;2.13;;;1.93;;
13406;SDS011;6774;48.208;10.766;2023-08-06T02:50:06;2.30;;;2.07;;
13406;SDS011;6774;48.208;10.766;2023-08-06T02:52:34;2.30;;;2.20;;
13406;SDS011;6774;48.208;10.766;2023-08-06T02:55:05;3.00;;;1.93;;
13406;SDS011;6774;48.208;10.766;2023-08-06T02:57:37;1.90;;;1.67;;
13406;SDS011;6774;48.208;10.766;2023-08-06T03:00:06;2.07;;;1.27;;
13406;SDS011;6774;48.208;10.766;2023-08-06T03:02:36;2.20;;;2.10;;
13406;SDS011;6774;48.208;10.766;2023-08-06T03:05:18;2.43;;;2.23;;
13406;SDS011;6774;48.208;10.766;2023-08-06T03:07:47;1.67;;;1.57;;
13406;SDS011;6774;48.208;10.766;2023-08-06T03:10:20;3.53;;;1.53;;
13406;SDS011;6774;48.208;10.766;2023-08-06T03:12:50;2.03;;;1.93;;
13406;SDS011;6774;48.208;10.766;2023-08-06T03:15:19;1.37;;;1.33;;
13406;SDS011;6774;48.208;10.766;2023-08-06T03:17:49;1.40;;;1.27;;
13406;SDS011;6774;48.208;10.766;2023-08-06T03:20:20;3.60;;;2.23;;
13406;SDS011;6774;48.208;10.766;2023-08-06T03:22:48;1.73;;;1.63;;
13406;SDS011;6774;48.208;10.766;2023-08-06T03:25:17;2.03;;;1.87;;
13406;SDS011;6774;48.208;10.766;2023-08-06T03:27:47;1.10;;;1.10;;
13406;SDS011;6774;48.208;10.766;2023-08-06T03:30:17;3.10;;;2.00;;
13406;SDS011;6774;48.208;10.766;2023-08-06T03:32:47;1.50;;;1.40;;
13406;SDS011;6774;48.208;10.766;2023-08-06T03:35:20;3.90;;;3.27;;
13406;SDS011;6774;48.208;10.766;2023-08-06T03:37:49;5.27;;;1.23;;
13406;SDS011;6774;48.208;10.766;2023-08-06T03:40:17;1.73;;;1.63;;
13406;SDS011;6774;48.208;10.766;2023-08-06T03:42:45;3.27;;;2.00;;
13406;SDS011;6774;48.208;10.766;2023-08-06T03:45:13;1.83;;;1.73;;
13406;SDS011;6774;48.208;10.766;2023-08-06T03:47:42;1.13;;;1.10;;
13406;SDS011;6774;48.208;10.766;2023-08-06T03:50:12;6.10;;;1.60;;
13406;SDS011;6774;48.208;10.766;2023-08-06T03:52:41;2.10;;;1.40;;
13406;SDS011;6774;48.208;10.766;2023-08-06T03:55:10;2.47;;;2.27;;
13406;SDS011;6774;48.208;10.766;2023-08-06T03:57:38;1.70;;;1.60;;
13406;SDS011;6774;48.208;10.766;2023-08-06T04:00:08;0.93;;;0.93;;
13406;SDS011;6774;48.208;10.766;2023-08-06T04:02:42;1.83;;;1.57;;
13406;SDS011;6774;48.208;10.766;2023-08-06T04:05:12;1.43;;;1.33;;
13406;SDS011;6774;48.208;10.766;2023-08-06T04:07:42;1.40;;;1.30;;
13406;SDS011;6774;48.208;10.766;2023-08-06T04:10:09;1.63;;;1.53;;
13406;SDS011;6774;48.208;10.766;2023-08-06T04:12:37;1.23;;;1.20;;
13406;SDS011;6774;48.208;10.766;2023-08-06T04:15:06;2.13;;;1.37;;
13406;SDS011;6774;48.208;10.766;2023-08-06T04:17:34;1.50;;;1.13;;
13406;SDS011;6774;48.208;10.766;2023-08-06T04:20:03;1.70;;;1.60;;
13406;SDS011;6774;48.208;10.766;2023-08-06T04:22:31;0.90;;;0.83;;
13406;SDS011;6774;48.208;10.766;2023-08-06T04:25:00;1.67;;;1.57;;
13406;SDS011;6774;48.208;10.766;2023-08-06T04:27:28;2.70;;;2.50;;
13406;SDS011;6774;48.208;10.766;2023-08-06T04:29:56;2.53;;;1.87;;
13406;SDS011;6774;48.208;10.766;2023-08-06T04:32:24;1.20;;;1.10;;
13406;SDS011;6774;48.208;10.766;2023-08-06T04:34:55;2.80;;;1.67;;
13406;SDS011;6774;48.208;10.766;2023-08-06T04:37:23;6.93;;;1.43;;
13406;SDS011;6774;48.208;10.766;2023-08-06T04:39:51;2.00;;;1.67;;
13406;SDS011;6774;48.208;10.766;2023-08-06T04:42:20;1.70;;;1.60;;
13406;SDS011;6774;48.208;10.766;2023-08-06T04:44:48;1.53;;;1.43;;
13406;SDS011;6774;48.208;10.766;2023-08-06T04:47:16;3.50;;;1.80;;
13406;SDS011;6774;48.208;10.766;2023-08-06T04:49:44;1.53;;;1.43;;
13406;SDS011;6774;48.208;10.766;2023-08-06T04:52:12;2.03;;;1.47;;
13406;SDS011;6774;48.208;10.766;2023-08-06T04:54:40;2.07;;;1.97;;
13406;SDS011;6774;48.208;10.766;2023-08-06T04:57:08;2.43;;;1.80;;
13406;SDS011;6774;48.208;10.766;2023-08-06T04:59:37;3.20;;;2.50;;
13406;SDS011;6774;48.208;10.766;2023-08-06T05:02:05;1.60;;;1.53;;
13406;SDS011;6774;48.208;10.766;2023-08-06T05:04:32;2.30;;;1.40;;
13406;SDS011;6774;48.208;10.766;2023-08-06T05:07:00;1.93;;;1.83;;
13406;SDS011;6774;48.208;10.766;2023-08-06T05:09:28;1.10;;;0.90;;
13406;SDS011;6774;48.208;10.766;2023-08-06T05:11:56;1.17;;;1.10;;
13406;SDS011;6774;48.208;10.766;2023-08-06T05:14:23;1.33;;;1.23;;
13406;SDS011;6774;48.208;10.766;2023-08-06T05:16:52;1.73;;;0.90;;
13406;SDS011;6774;48.208;10.766;2023-08-06T05:19:20;0.77;;;0.77;;
13406;SDS011;6774;48.208;10.766;2023-08-06T05:21:48;1.57;;;1.20;;
13406;SDS011;6774;48.208;10.766;2023-08-06T05:24:16;1.20;;;1.20;;
13406;SDS011;6774;48.208;10.766;2023-08-06T05:26:47;1.57;;;1.47;;
13406;SDS011;6774;48.208;10.766;2023-08-06T05:29:15;0.87;;;0.87;;
13406;SDS011;6774;48.208;10.766;2023-08-06T05:31:44;0.87;;;0.87;;
13406;SDS011;6774;48.208;10.766;2023-08-06T05:34:13;1.20;;;1.10;;
13406;SDS011;6774;48.208;10.766;2023-08-06T05:36:41;1.90;;;0.40;;
13406;SDS011;6774;48.208;10.766;2023-08-06T05:39:09;2.57;;;0.70;;
13406;SDS011;6774;48.208;10.766;2023-08-06T05:41:36;1.10;;;1.00;;
13406;SDS011;6774;48.208;10.766;2023-08-06T05:44:04;0.97;;;0.93;;
13406;SDS011;6774;48.208;10.766;2023-08-06T05:46:32;5.70;;;1.63;;
13406;SDS011;6774;48.208;10.766;2023-08-06T05:48:59;0.63;;;0.60;;
13406;SDS011;6774;48.208;10.766;2023-08-06T05:51:29;0.87;;;0.53;;
13406;SDS011;6774;48.208;10.766;2023-08-06T05:53:56;1.00;;;0.80;;
13406;SDS011;6774;48.208;10.766;2023-08-06T05:56:24;0.40;;;0.40;;
13406;SDS011;6774;48.208;10.766;2023-08-06T05:58:52;2.87;;;1.10;;
13406;SDS011;6774;48.208;10.766;2023-08-06T06:01:20;1.37;;;0.93;;
13406;SDS011;6774;48.208;10.766;2023-08-06T06:03:47;0.97;;;0.40;;
13406;SDS011;6774;48.208;10.766;2023-08-06T06:06:15;1.23;;;1.13;;
13406;SDS011;6774;48.208;10.766;2023-08-06T06:08:46;0.90;;;0.60;;
13406;SDS011;6774;48.208;10.766;2023-08-06T06:11:13;0.53;;;0.53;;
13406;SDS011;6774;48.208;10.766;2023-08-06T06:13:41;1.10;;;1.03;;
13406;SDS011;6774;48.208;10.766;2023-08-06T06:16:09;2.00;;;0.70;;
13406;SDS011;6774;48.208;10.766;2023-08-06T06:18:37;0.90;;;0.90;;
13406;SDS011;6774;48.208;10.766;2023-08-06T06:21:05;1.33;;;1.23;;
13406;SDS011;6774;48.208;10.766;2023-08-06T06:23:33;1.43;;;0.53;;
13406;SDS011;6774;48.208;10.766;2023-08-06T06:26:02;0.77;;;0.77;;
13406;SDS011;6774;48.208;10.766;2023-08-06T06:28:30;1.83;;;0.50;;
13406;SDS011;6774;48.208;10.766;2023-08-06T06:30:59;0.80;;;0.80;;
13406;SDS011;6774;48.208;10.766;2023-08-06T06:33:28;2.13;;;0.97;;
13406;SDS011;6774;48.208;10.766;2023-08-06T06:35:56;1.23;;;0.83;;
13406;SDS011;6774;48.208;10.766;2023-08-06T06:38:23;1.20;;;1.10;;
13406;SDS011;6774;48.208;10.766;2023-08-06T06:40:54;0.53;;;0.50;;
13406;SDS011;6774;48.208;10.766;2023-08-06T06:43:23;2.23;;;0.70;;
13406;SDS011;6774;48.208;10.766;2023-08-06T06:45:52;0.53;;;0.50;;
13406;SDS011;6774;48.208;10.766;2023-08-06T06:48:20;1.03;;;1.00;;
13406;SDS011;6774;48.208;10.766;2023-08-06T06:50:48;0.93;;;0.70;;
13406;SDS011;6774;48.208;10.766;2023-08-06T06:53:16;1.47;;;0.90;;
13406;SDS011;6774;48.208;10.766;2023-08-06T06:55:44;1.37;;;0.50;;
13406;SDS011;6774;48.208;10.766;2023-08-06T06:58:12;1.10;;;0.70;;
13406;SDS011;6774;48.208;10.766;2023-08-06T07:00:41;0.87;;;0.73;;
13406;SDS011;6774;48.208;10.766;2023-08-06T07:03:08;0.80;;;0.30;;
13406;SDS011;6774;48.208;10.766;2023-08-06T07:05:36;2.47;;;2.23;;
13406;SDS011;6774;48.208;10.766;2023-08-06T07:08:04;1.40;;;0.77;;
13406;SDS011;6774;48.208;10.766;2023-08-06T07:10:32;2.50;;;0.50;;
13406;SDS011;6774;48.208;10.766;2023-08-06T07:12:59;3.03;;;0.40;;
13406;SDS011;6774;48.208;10.766;2023-08-06T07:15:27;1.70;;;0.70;;
13406;SDS011;6774;48.208;10.766;2023-08-06T07:17:57;0.27;;;0.27;;
13406;SDS011;6774;48.208;10.766;2023-08-06T07:20:25;1.23;;;0.73;;
13406;SDS011;6774;48.208;10.766;2023-08-06T07:22:55;1.47;;;0.73;;
13406;SDS011;6774;48.208;10.766;2023-08-06T07:25:23;0.40;;;0.40;;
13406;SDS011;6774;48.208;10.766;2023-08-06T07:27:51;0.80;;;0.77;;
13406;SDS011;6774;48.208;10.766;2023-08-06T07:30:18;0.73;;;0.50;;
13406;SDS011;6774;48.208;10.766;2023-08-06T07:32:46;0.77;;;0.50;;
13406;SDS011;6774;48.208;10.766;2023-08-06T07:35:16;2.37;;;0.47;;
13406;SDS011;6774;48.208;10.766;2023-08-06T07:37:43;0.53;;;0.40;;
13406;SDS011;6774;48.208;10.766;2023-08-06T07:40:11;0.30;;;0.20;;
13406;SDS011;6774;48.208;10.766;2023-08-06T07:42:40;0.53;;;0.30;;
13406;SDS011;6774;48.208;10.766;2023-08-06T07:45:08;0.77;;;0.43;;
13406;SDS011;6774;48.208;10.766;2023-08-06T07:47:36;0.33;;;0.30;;
13406;SDS011;6774;48.208;10.766;2023-08-06T07:50:05;0.13;;;0.13;;
13406;SDS011;6774;48.208;10.766;2023-08-06T07:52:34;3.03;;;0.30;;
13406;SDS011;6774;48.208;10.766;2023-08-06T07:55:02;0.77;;;0.77;;
13406;SDS011;6774;48.208;10.766;2023-08-06T07:57:31;0.70;;;0.57;;
13406;SDS011;6774;48.208;10.766;2023-08-06T08:00:00;0.10;;;0.10;;
13406;SDS011;6774;48.208;10.766;2023-08-06T08:02:38;1.03;;;0.10;;
13406;SDS011;6774;48.208;10.766;2023-08-06T08:05:06;0.13;;;0.13;;
13406;SDS011;6774;48.208;10.766;2023-08-06T08:07:36;0.30;;;0.30;;
13406;SDS011;6774;48.208;10.766;2023-08-06T08:10:04;0.53;;;0.30;;
13406;SDS011;6774;48.208;10.766;2023-08-06T08:12:32;1.10;;;0.20;;
13406;SDS011;6774;48.208;10.766;2023-08-06T08:15:00;0.60;;;0.10;;
13406;SDS011;6774;48.208;10.766;2023-08-06T08:17:29;0.23;;;0.10;;
13406;SDS011;6774;48.208;10.766;2023-08-06T08:19:57;0.30;;;0.20;;
13406;SDS011;6774;48.208;10.766;2023-08-06T08:22:25;0.50;;;0.20;;
13406;SDS011;6774;48.208;10.766;2023-08-06T08:24:54;0.70;;;0.70;;
13406;SDS011;6774;48.208;10.766;2023-08-06T08:27:22;0.97;;;0.97;;
13406;SDS011;6774;48.208;10.766;2023-08-06T08:29:50;0.20;;;0.20;;
13406;SDS011;6774;48.208;10.766;2023-08-06T08:32:18;0.90;;;0.10;;
13406;SDS011;6774;48.208;10.766;2023-08-06T08:34:45;0.10;;;0.10;;
13406;SDS011;6774;48.208;10.766;2023-08-06T08:37:13;0.47;;;0.47;;
13406;SDS011;6774;48.208;10.766;2023-08-06T08:39:41;0.00;;;0.00;;
13406;SDS011;6774;48.208;10.766;2023-08-06T08:42:11;0.20;;;0.20;;
13406;SDS011;6774;48.208;10.766;2023-08-06T08:44:40;0.10;;;0.10;;
13406;SDS011;6774;48.208;10.766;2023-08-06T08:47:10;0.63;;;0.63;;
13406;SDS011;6774;48.208;10.766;2023-08-06T08:49:43;0.07;;;0.07;;
13406;SDS011;6774;48.208;10.766;2023-08-06T08:52:12;0.23;;;0.10;;
13406;SDS011;6774;48.208;10.766;2023-08-06T08:54:45;0.10;;;0.03;;
13406;SDS011;6774;48.208;10.766;2023-08-06T08:57:19;0.00;;;0.00;;
13406;SDS011;6774;48.208;10.766;2023-08-06T08:59:48;1.70;;;0.20;;
13406;SDS011;6774;48.208;10.766;2023-08-06T09:02:18;0.00;;;0.00;;
13406;SDS011;6774;48.208;10.766;2023-08-06T09:04:49;0.70;;;0.10;;
13406;SDS011;6774;48.208;10.766;2023-08-06T09:07:19;0.40;;;0.40;;
13406;SDS011;6774;48.208;10.766;2023-08-06T09:09:50;0.60;;;0.10;;
13406;SDS011;6774;48.208;10.766;2023-08-06T09:12:22;1.80;;;0.50;;
13406;SDS011;6774;48.208;10.766;2023-08-06T09:14:50;0.20;;;0.10;;
13406;SDS011;6774;48.208;10.766;2023-08-06T09:17:19;1.13;;;0.30;;
13406;SDS011;6774;48.208;10.766;2023-08-06T09:19:48;1.03;;;0.10;;
13406;SDS011;6774;48.208;10.766;2023-08-06T09:22:16;0.10;;;0.10;;
13406;SDS011;6774;48.208;10.766;2023-08-06T09:24:45;0.83;;;0.83;;
13406;SDS011;6774;48.208;10.766;2023-08-06T09:27:14;0.57;;;0.53;;
13406;SDS011;6774;48.208;10.766;2023-08-06T09:29:44;0.20;;;0.20;;
13406;SDS011;6774;48.208;10.766;2023-08-06T09:32:13;0.70;;;0.13;;
13406;SDS011;6774;48.208;10.766;2023-08-06T09:34:43;0.10;;;0.10;;
13406;SDS011;6774;48.208;10.766;2023-08-06T09:37:11;0.10;;;0.10;;
13406;SDS011;6774;48.208;10.766;2023-08-06T09:39:40;0.73;;;0.70;;
13406;SDS011;6774;48.208;10.766;2023-08-06T09:42:09;1.20;;;0.77;;
13406;SDS011;6774;48.208;10.766;2023-08-06T09:44:38;0.17;;;0.10;;
13406;SDS011;6774;48.208;10.766;2023-08-06T09:47:10;0.10;;;0.07;;
13406;SDS011;6774;48.208;10.766;2023-08-06T09:49:42;0.40;;;0.07;;
13406;SDS011;6774;48.208;10.766;2023-08-06T09:52:12;0.03;;;0.00;;
13406;SDS011;6774;48.208;10.766;2023-08-06T09:54:43;0.00;;;0.00;;
13406;SDS011;6774;48.208;10.766;2023-08-06T09:57:12;1.90;;;0.10;;
13406;SDS011;6774;48.208;10.766;2023-08-06T09:59:42;0.23;;;0.10;;
13406;SDS011;6774;48.208;10.766;2023-08-06T10:02:13;0.03;;;0.03;;
13406;SDS011;6774;48.208;10.766;2023-08-06T10:04:42;0.20;;;0.10;;
13406;SDS011;6774;48.208;10.766;2023-08-06T10:07:21;0.27;;;0.10;;
13406;SDS011;6774;48.208;10.766;2023-08-06T10:09:51;0.10;;;0.10;;
13406;SDS011;6774;48.208;10.766;2023-08-06T10:12:19;0.00;;;0.00;;
13406;SDS011;6774;48.208;10.766;2023-08-06T10:14:49;3.60;;;0.20;;
13406;SDS011;6774;48.208;10.766;2023-08-06T10:17:20;0.07;;;0.07;;
13406;SDS011;6774;48.208;10.766;2023-08-06T10:19:54;1.17;;;0.10;;
13406;SDS011;6774;48.208;10.766;2023-08-06T10:22:23;0.67;;;0.13;;
13406;SDS011;6774;48.208;10.766;2023-08-06T10:24:58;0.47;;;0.10;;
13406;SDS011;6774;48.208;10.766;2023-08-06T10:27:31;0.03;;;0.03;;
13406;SDS011;6774;48.208;10.766;2023-08-06T10:32:54;0.20;;;0.10;;
13406;SDS011;6774;48.208;10.766;2023-08-06T10:35:31;0.10;;;0.10;;
13406;SDS011;6774;48.208;10.766;2023-08-06T10:38:03;0.37;;;0.37;;
13406;SDS011;6774;48.208;10.766;2023-08-06T10:40:33;0.73;;;0.00;;
13406;SDS011;6774;48.208;10.766;2023-08-06T10:43:01;0.00;;;0.00;;
13406;SDS011;6774;48.208;10.766;2023-08-06T10:45:34;0.07;;;0.00;;
13406;SDS011;6774;48.208;10.766;2023-08-06T10:48:05;0.13;;;0.10;;
13406;SDS011;6774;48.208;10.766;2023-08-06T10:50:33;0.10;;;0.10;;
13406;SDS011;6774;48.208;10.766;2023-08-06T10:53:05;0.20;;;0.20;;
13406;SDS011;6774;48.208;10.766;2023-08-06T10:55:35;0.07;;;0.07;;
13406;SDS011;6774;48.208;10.766;2023-08-06T10:58:05;0.00;;;0.00;;
13406;SDS011;6774;48.208;10.766;2023-08-06T11:00:34;0.03;;;0.00;;
13406;SDS011;6774;48.208;10.766;2023-08-06T11:03:04;0.10;;;0.10;;
13406;SDS011;6774;48.208;10.766;2023-08-06T11:05:33;0.00;;;0.00;;
13406;SDS011;6774;48.208;10.766;2023-08-06T11:08:02;0.10;;;0.10;;
13406;SDS011;6774;48.208;10.766;2023-08-06T11:10:32;0.10;;;0.10;;
13406;SDS011;6774;48.208;10.766;2023-08-06T11:13:01;0.00;;;0.00;;
13406;SDS011;6774;48.208;10.766;2023-08-06T11:15:30;2.37;;;0.87;;
13406;SDS011;6774;48.208;10.766;2023-08-06T11:17:58;0.10;;;0.00;;
13406;SDS011;6774;48.208;10.766;2023-08-06T11:20:28;0.10;;;0.10;;
13406;SDS011;6774;48.208;10.766;2023-08-06T11:22:57;0.00;;;0.00;;
13406;SDS011;6774;48.208;10.766;2023-08-06T11:25:25;0.77;;;0.23;;
13406;SDS011;6774;48.208;10.766;2023-08-06T11:27:54;0.07;;;0.07;;
13406;SDS011;6774;48.208;10.766;2023-08-06T11:30:22;0.00;;;0.00;;
13406;SDS011;6774;48.208;10.766;2023-08-06T11:32:51;0.00;;;0.00;;
13406;SDS011;6774;48.208;10.766;2023-08-06T11:35:19;0.00;;;0.00;;
13406;SDS011;6774;48.208;10.766;2023-08-06T11:37:49;10.60;;;0.40;;
13406;SDS011;6774;48.208;10.766;2023-08-06T11:40:18;2.60;;;0.07;;
13406;SDS011;6774;48.208;10.766;2023-08-06T11:42:46;1.03;;;0.00;;
13406;SDS011;6774;48.208;10.766;2023-08-06T11:45:16;0.10;;;0.00;;
13406;SDS011;6774;48.208;10.766;2023-08-06T11:47:49;0.13;;;0.00;;
13406;SDS011;6774;48.208;10.766;2023-08-06T11:50:22;0.53;;;0.07;;
13406;SDS011;6774;48.208;10.766;2023-08-06T11:52:54;0.00;;;0.00;;
13406;SDS011;6774;48.208;10.766;2023-08-06T11:55:24;0.00;;;0.00;;
13406;SDS011;6774;48.208;10.766;2023-08-06T11:57:55;2.33;;;0.10;;
13406;SDS011;6774;48.208;10.766;2023-08-06T12:00:23;0.07;;;0.07;;
13406;SDS011;6774;48.208;10.766;2023-08-06T12:02:52;0.00;;;0.00;;
13406;SDS011;6774;48.208;10.766;2023-08-06T12:05:22;0.17;;;0.00;;
13406;SDS011;6774;48.208;10.766;2023-08-06T12:07:51;0.00;;;0.00;;
13406;SDS011;6774;48.208;10.766;2023-08-06T12:10:24;2.37;;;0.20;;
13406;SDS011;6774;48.208;10.766;2023-08-06T12:12:54;0.10;;;0.10;;
13406;SDS011;6774;48.208;10.766;2023-08-06T12:15:23;0.20;;;0.10;;
13406;SDS011;6774;48.208;10.766;2023-08-06T12:17:52;0.00;;;0.00;;
13406;SDS011;6774;48.208;10.766;2023-08-06T12:20:21;0.80;;;0.17;;
13406;SDS011;6774;48.208;10.766;2023-08-06T12:22:49;0.10;;;0.10;;
13406;SDS011;6774;48.208;10.766;2023-08-06T12:25:19;0.20;;;0.20;;
13406;SDS011;6774;48.208;10.766;2023-08-06T12:27:47;0.10;;;0.10;;
13406;SDS011;6774;48.208;10.766;2023-08-06T12:30:16;2.17;;;0.10;;
13406;SDS011;6774;48.208;10.766;2023-08-06T12:32:44;7.77;;;0.47;;
13406;SDS011;6774;48.208;10.766;2023-08-06T12:35:13;0.00;;;0.00;;
13406;SDS011;6774;48.208;10.766;2023-08-06T12:37:41;0.57;;;0.00;;
13406;SDS011;6774;48.208;10.766;2023-08-06T12:40:10;0.20;;;0.20;;
13406;SDS011;6774;48.208;10.766;2023-08-06T12:42:43;0.13;;;0.10;;
13406;SDS011;6774;48.208;10.766;2023-08-06T12:45:12;0.00;;;0.00;;
13406;SDS011;6774;48.208;10.766;2023-08-06T12:47:41;0.00;;;0.00;;
13406;SDS011;6774;48.208;10.766;2023-08-06T12:50:09;0.50;;;0.00;;
13406;SDS011;6774;48.208;10.766;2023-08-06T12:52:37;0.10;;;0.10;;
13406;SDS011;6774;48.208;10.766;2023-08-06T12:55:06;0.07;;;0.00;;
13406;SDS011;6774;48.208;10.766;2023-08-06T12:57:34;0.20;;;0.20;;
13406;SDS011;6774;48.208;10.766;2023-08-06T13:00:23;4.50;;;0.63;;
13406;SDS011;6774;48.208;10.766;2023-08-06T13:02:51;0.10;;;0.00;;
13406;SDS011;6774;48.208;10.766;2023-08-06T13:05:19;0.00;;;0.00;;
13406;SDS011;6774;48.208;10.766;2023-08-06T13:07:47;0.30;;;0.00;;
13406;SDS011;6774;48.208;10.766;2023-08-06T13:10:15;0.00;;;0.00;;
13406;SDS011;6774;48.208;10.766;2023-08-06T13:12:43;0.00;;;0.00;;
13406;SDS011;6774;48.208;10.766;2023-08-06T13:15:11;0.10;;;0.10;;
13406;SDS011;6774;48.208;10.766;2023-08-06T13:17:42;0.17;;;0.10;;
13406;SDS011;6774;48.208;10.766;2023-08-06T13:20:10;1.13;;;0.20;;
13406;SDS011;6774;48.208;10.766;2023-08-06T13:22:37;0.20;;;0.00;;
13406;SDS011;6774;48.208;10.766;2023-08-06T13:25:05;0.10;;;0.10;;
13406;SDS011;6774;48.208;10.766;2023-08-06T13:27:33;0.00;;;0.00;;
13406;SDS011;6774;48.208;10.766;2023-08-06T13:30:01;0.20;;;0.00;;
13406;SDS011;6774;48.208;10.766;2023-08-06T13:32:29;0.10;;;0.10;;
13406;SDS011;6774;48.208;10.766;2023-08-06T13:35:00;0.10;;;0.10;;
13406;SDS011;6774;48.208;10.766;2023-08-06T13:37:27;0.47;;;0.10;;
13406;SDS011;6774;48.208;10.766;2023-08-06T13:39:55;0.60;;;0.20;;
13406;SDS011;6774;48.208;10.766;2023-08-06T13:42:23;0.10;;;0.10;;
13406;SDS011;6774;48.208;10.766;2023-08-06T13:44:51;0.00;;;0.00;;
13406;SDS011;6774;48.208;10.766;2023-08-06T13:47:19;0.20;;;0.20;;
13406;SDS011;6774;48.208;10.766;2023-08-06T13:49:46;0.17;;;0.10;;
13406;SDS011;6774;48.208;10.766;2023-08-06T13:52:16;0.67;;;0.47;;
13406;SDS011;6774;48.208;10.766;2023-08-06T13:54:48;0.77;;;0.73;;
13406;SDS011;6774;48.208;10.766;2023-08-06T13:57:15;0.00;;;0.00;;
13406;SDS011;6774;48.208;10.766;2023-08-06T13:59:44;8.73;;;1.90;;
13406;SDS011;6774;48.208;10.766;2023-08-06T14:02:12;0.03;;;0.03;;
13406;SDS011;6774;48.208;10.766;2023-08-06T14:04:39;1.23;;;0.10;;
13406;SDS011;6774;48.208;10.766;2023-08-06T14:07:07;7.43;;;2.10;;
13406;SDS011;6774;48.208;10.766;2023-08-06T14:09:36;0.17;;;0.00;;
13406;SDS011;6774;48.208;10.766;2023-08-06T14:12:05;0.00;;;0.00;;
13406;SDS011;6774;48.208;10.766;2023-08-06T14:14:33;0.13;;;0.10;;
13406;SDS011;6774;48.208;10.766;2023-08-06T14:17:01;0.10;;;0.00;;
13406;SDS011;6774;48.208;10.766;2023-08-06T14:19:29;0.10;;;0.10;;
13406;SDS011;6774;48.208;10.766;2023-08-06T14:21:57;0.00;;;0.00;;
13406;SDS011;6774;48.208;10.766;2023-08-06T14:24:25;0.00;;;0.00;;
13406;SDS011;6774;48.208;10.766;2023-08-06T14:26:54;0.93;;;0.10;;
13406;SDS011;6774;48.208;10.766;2023-08-06T14:29:22;0.83;;;0.10;;
13406;SDS011;6774;48.208;10.766;2023-08-06T14:31:50;1.60;;;0.10;;
13406;SDS011;6774;48.208;10.766;2023-08-06T14:34:18;0.03;;;0.03;;
13406;SDS011;6774;48.208;10.766;2023-08-06T14:36:46;0.40;;;0.10;;
13406;SDS011;6774;48.208;10.766;2023-08-06T14:39:14;0.27;;;0.27;;
13406;SDS011;6774;48.208;10.766;2023-08-06T14:41:41;0.10;;;0.10;;
13406;SDS011;6774;48.208;10.766;2023-08-06T14:44:11;0.00;;;0.00;;
13406;SDS011;6774;48.208;10.766;2023-08-06T14:46:38;0.10;;;0.10;;
13406;SDS011;6774;48.208;10.766;2023-08-06T14:49:06;0.10;;;0.10;;
13406;SDS011;6774;48.208;10.766;2023-08-06T14:51:34;0.57;;;0.53;;
13406;SDS011;6774;48.208;10.766;2023-08-06T14:54:02;0.83;;;0.83;;
13406;SDS011;6774;48.208;10.766;2023-08-06T14:56:29;0.10;;;0.10;;
13406;SDS011;6774;48.208;10.766;2023-08-06T14:58:57;0.87;;;0.60;;
13406;SDS011;6774;48.208;10.766;2023-08-06T15:01:26;0.10;;;0.00;;